Time;durP1;ratioP1;P1;durP2;ratioP2;P2;SDS_P1;SDS_P2;PMS_P1;PMS_P2;Temp;Humidity;BMP_temperature;BMP_pressure;BME280_temperature;BME280_humidity;BME280_pressure;Samples;Min_cycle;Max_cycle;Signal;HPM_P1;HPM_P2
2022/04/10 00:01:24;;;;;;;0.10;0.10;;;;;;;;;;1892719;76;26214;-41
2022/04/10 00:03:51;;;;;;;0.20;0.20;;;;;;;;;;1895030;74;26364;-46
2022/04/10 00:06:18;;;;;;;1.30;0.20;;;;;;;;;;1848560;76;26342;-43
2022/04/10 00:08:46;;;;;;;0.10;0.10;;;;;;;;;;1862974;76;26212;-45
2022/04/10 00:11:13;;;;;;;0.30;0.10;;;;;;;;;;1863326;76;26336;-45
2022/04/10 00:13:40;;;;;;;0.15;0.15;;;;;;;;;;1880104;76;26700;-45
2022/04/10 00:16:08;;;;;;;0.30;0.30;;;;;;;;;;1880108;76;26733;-43
2022/04/10 00:18:36;;;;;;;0.20;0.20;;;;;;;;;;1879459;76;26272;-44
2022/04/10 00:21:05;;;;;;;0.53;0.35;;;;;;;;;;1860223;76;26289;-44
2022/04/10 00:23:32;;;;;;;0.20;0.20;;;;;;;;;;1878050;75;26249;-46
2022/04/10 00:26:00;;;;;;;0.30;0.10;;;;;;;;;;1879994;76;26794;-41
2022/04/10 00:28:28;;;;;;;0.10;0.10;;;;;;;;;;1879996;76;26269;-43
2022/04/10 00:30:55;;;;;;;0.20;0.20;;;;;;;;;;1879922;76;26253;-43
2022/04/10 00:33:22;;;;;;;0.23;0.23;;;;;;;;;;1880171;76;26646;-42
2022/04/10 00:35:49;;;;;;;1.55;0.10;;;;;;;;;;1836028;76;26707;-43
2022/04/10 00:38:17;;;;;;;0.25;0.25;;;;;;;;;;1838898;76;26691;-41
2022/04/10 00:40:44;;;;;;;0.20;0.20;;;;;;;;;;1879834;76;26336;-44
2022/04/10 00:43:11;;;;;;;0.30;0.20;;;;;;;;;;1863595;76;26286;-49
2022/04/10 00:45:39;;;;;;;0.20;0.20;;;;;;;;;;1849270;77;26270;-44
2022/04/10 00:48:06;;;;;;;0.10;0.10;;;;;;;;;;1829943;78;26301;-42
2022/04/10 00:50:33;;;;;;;0.30;0.30;;;;;;;;;;1829993;78;26844;-43
2022/04/10 00:53:01;;;;;;;0.10;0.10;;;;;;;;;;1822038;78;25378;-54
2022/04/10 00:55:29;;;;;;;1.42;0.17;;;;;;;;;;1839832;78;26325;-48
2022/04/10 00:57:57;;;;;;;1.27;0.20;;;;;;;;;;1837827;77;26366;-46
2022/04/10 01:00:24;;;;;;;0.10;0.10;;;;;;;;;;1827009;76;26286;-47
2022/04/10 01:02:51;;;;;;;0.10;0.10;;;;;;;;;;1813193;76;26297;-44
2022/04/10 01:05:19;;;;;;;0.17;0.17;;;;;;;;;;1849782;77;26319;-46
2022/04/10 01:07:46;;;;;;;0.10;0.10;;;;;;;;;;1860603;77;26260;-47
2022/04/10 01:10:13;;;;;;;0.20;0.20;;;;;;;;;;1857843;76;26789;-47
2022/04/10 01:12:41;;;;;;;0.98;0.20;;;;;;;;;;1836204;77;26768;-45
2022/04/10 01:15:09;;;;;;;0.20;0.20;;;;;;;;;;1829734;78;26261;-43
2022/04/10 01:17:36;;;;;;;0.10;0.10;;;;;;;;;;1861116;77;25650;-47
2022/04/10 01:20:04;;;;;;;0.20;0.20;;;;;;;;;;1837230;76;26301;-42
2022/04/10 01:22:33;;;;;;;0.30;0.30;;;;;;;;;;1861134;77;26540;-49
2022/04/10 01:25:01;;;;;;;0.10;0.10;;;;;;;;;;1861065;77;26376;-43
2022/04/10 01:27:29;;;;;;;0.37;0.37;;;;;;;;;;1860954;77;26284;-45
2022/04/10 01:29:56;;;;;;;0.10;0.10;;;;;;;;;;1860996;77;26276;-46
2022/04/10 01:32:23;;;;;;;0.10;0.10;;;;;;;;;;1849629;77;26366;-42
2022/04/10 01:34:51;;;;;;;0.15;0.15;;;;;;;;;;1814376;77;26314;-46
2022/04/10 01:37:19;;;;;;;0.75;0.10;;;;;;;;;;1858859;77;26671;-50
2022/04/10 01:39:46;;;;;;;0.10;0.10;;;;;;;;;;1860560;77;26536;-46
2022/04/10 01:42:14;;;;;;;0.57;0.28;;;;;;;;;;1830581;78;26399;-49
2022/04/10 01:44:42;;;;;;;0.13;0.13;;;;;;;;;;1821306;75;26291;-45
2022/04/10 01:47:09;;;;;;;0.20;0.20;;;;;;;;;;1865011;77;26700;-42
2022/04/10 01:49:37;;;;;;;0.10;0.10;;;;;;;;;;1865429;77;26370;-45
2022/04/10 01:52:05;;;;;;;0.90;0.30;;;;;;;;;;1865245;77;26291;-42
2022/04/10 01:54:33;;;;;;;0.90;0.20;;;;;;;;;;1864428;77;26225;-48
2022/04/10 01:57:00;;;;;;;0.20;0.20;;;;;;;;;;1831189;77;26755;-45
2022/04/10 01:59:31;;;;;;;0.65;0.10;;;;;;;;;;1813294;78;26251;-42
2022/04/10 02:01:59;;;;;;;0.10;0.10;;;;;;;;;;1864527;77;26308;-52
2022/04/10 02:04:26;;;;;;;0.20;0.20;;;;;;;;;;1864081;76;26733;-53
2022/04/10 02:06:53;;;;;;;0.25;0.20;;;;;;;;;;1852270;77;26816;-48
2022/04/10 02:09:20;;;;;;;0.10;0.10;;;;;;;;;;1896278;75;26803;-42
2022/04/10 02:11:47;;;;;;;0.10;0.10;;;;;;;;;;1843185;78;26269;-48
2022/04/10 02:14:15;;;;;;;1.95;0.15;;;;;;;;;;1896388;75;26242;-47
2022/04/10 02:16:42;;;;;;;0.20;0.20;;;;;;;;;;1856680;75;26279;-46
2022/04/10 02:19:09;;;;;;;0.20;0.20;;;;;;;;;;1869410;75;26269;-47
2022/04/10 02:21:37;;;;;;;0.10;0.10;;;;;;;;;;1806003;79;26321;-52
2022/04/10 02:24:05;;;;;;;0.10;0.10;;;;;;;;;;1823181;77;27484;-47
2022/04/10 02:26:33;;;;;;;0.10;0.10;;;;;;;;;;1824268;77;26251;-44
2022/04/10 02:29:00;;;;;;;0.23;0.20;;;;;;;;;;1827844;76;26267;-47
2022/04/10 02:31:27;;;;;;;0.10;0.10;;;;;;;;;;1828400;77;26329;-44
2022/04/10 02:33:54;;;;;;;0.33;0.20;;;;;;;;;;1823648;77;26328;-45
2022/04/10 02:36:22;;;;;;;1.55;0.23;;;;;;;;;;1822411;77;26267;-44
2022/04/10 02:38:50;;;;;;;0.10;0.10;;;;;;;;;;1826760;77;26841;-45
2022/04/10 02:41:18;;;;;;;0.23;0.23;;;;;;;;;;1836231;76;26379;-47
2022/04/10 02:43:45;;;;;;;0.30;0.30;;;;;;;;;;1827472;77;26738;-45
2022/04/10 02:46:12;;;;;;;0.65;0.20;;;;;;;;;;1834510;77;26723;-46
2022/04/10 02:48:39;;;;;;;0.30;0.30;;;;;;;;;;1836144;77;26690;-48
2022/04/10 02:51:07;;;;;;;0.20;0.20;;;;;;;;;;1831836;77;26635;-46
2022/04/10 02:53:34;;;;;;;1.07;0.25;;;;;;;;;;1823635;76;26329;-47
2022/04/10 02:56:01;;;;;;;0.13;0.13;;;;;;;;;;1849300;76;26321;-46
2022/04/10 02:58:29;;;;;;;0.10;0.10;;;;;;;;;;1843320;77;26286;-43
2022/04/10 03:00:56;;;;;;;1.55;0.30;;;;;;;;;;1839335;77;26770;-48
2022/04/10 03:03:23;;;;;;;0.50;0.20;;;;;;;;;;1839832;77;26716;-42
2022/04/10 03:05:50;;;;;;;0.25;0.10;;;;;;;;;;1843928;76;26255;-50
2022/04/10 03:08:19;;;;;;;0.40;0.20;;;;;;;;;;1832195;77;26382;-46
2022/04/10 03:10:46;;;;;;;2.45;0.30;;;;;;;;;;1825066;77;26288;-50
2022/04/10 03:13:15;;;;;;;0.15;0.15;;;;;;;;;;1822995;77;26298;-52
2022/04/10 03:15:42;;;;;;;1.20;0.25;;;;;;;;;;1859148;76;26310;-43
2022/04/10 03:18:09;;;;;;;0.47;0.47;;;;;;;;;;1854984;76;26711;-49
2022/04/10 03:20:36;;;;;;;1.52;0.20;;;;;;;;;;1854824;75;26309;-50
2022/04/10 03:23:08;;;;;;;0.35;0.33;;;;;;;;;;1835670;77;26285;-48
2022/04/10 03:25:33;;;;;;;2.25;0.20;;;;;;;;;;1849171;76;26261;-43
2022/04/10 03:28:00;;;;;;;0.45;0.20;;;;;;;;;;1861245;76;26303;-44
2022/04/10 03:30:27;;;;;;;0.05;0.05;;;;;;;;;;1848317;75;26313;-42
2022/04/10 03:32:54;;;;;;;2.17;0.30;;;;;;;;;;1852538;76;26255;-46
2022/04/10 03:35:22;;;;;;;0.15;0.15;;;;;;;;;;1880085;76;26267;-42
2022/04/10 03:37:49;;;;;;;0.20;0.20;;;;;;;;;;1880289;76;26773;-48
2022/04/10 03:40:16;;;;;;;2.70;0.30;;;;;;;;;;1880212;76;26753;-44
2022/04/10 03:42:43;;;;;;;0.20;0.20;;;;;;;;;;1857901;75;26274;-47
2022/04/10 03:45:11;;;;;;;0.23;0.20;;;;;;;;;;1874354;76;26290;-44
2022/04/10 03:47:38;;;;;;;0.40;0.33;;;;;;;;;;1879961;76;26331;-43
2022/04/10 03:50:06;;;;;;;0.10;0.10;;;;;;;;;;1880140;76;26253;-43
2022/04/10 03:52:33;;;;;;;1.35;0.20;;;;;;;;;;1880162;76;26787;-45
2022/04/10 03:55:01;;;;;;;0.20;0.20;;;;;;;;;;1880296;75;26624;-42
2022/04/10 03:57:28;;;;;;;0.85;0.20;;;;;;;;;;1879817;76;26323;-44
2022/04/10 03:59:55;;;;;;;0.23;0.20;;;;;;;;;;1879871;76;26253;-43
2022/04/10 04:02:23;;;;;;;0.20;0.20;;;;;;;;;;1879995;76;26661;-45
2022/04/10 04:04:51;;;;;;;0.10;0.10;;;;;;;;;;1882516;75;26289;-45
2022/04/10 04:07:18;;;;;;;0.20;0.10;;;;;;;;;;1913020;75;26681;-43
2022/04/10 04:09:46;;;;;;;0.15;0.10;;;;;;;;;;1912965;75;26317;-52
2022/04/10 04:12:14;;;;;;;0.90;0.23;;;;;;;;;;1913040;75;26242;-46
2022/04/10 04:14:42;;;;;;;0.60;0.20;;;;;;;;;;1886498;75;26816;-43
2022/04/10 04:17:09;;;;;;;0.10;0.10;;;;;;;;;;1866896;75;26275;-43
2022/04/10 04:19:37;;;;;;;1.35;0.20;;;;;;;;;;1863424;76;26342;-46
2022/04/10 04:22:05;;;;;;;0.10;0.10;;;;;;;;;;1870285;76;26794;-41
2022/04/10 04:24:34;;;;;;;0.10;0.10;;;;;;;;;;1848827;77;26264;-48
2022/04/10 04:27:02;;;;;;;0.40;0.30;;;;;;;;;;1879814;76;26252;-44
2022/04/10 04:29:29;;;;;;;0.20;0.20;;;;;;;;;;1863235;75;26790;-47
2022/04/10 04:31:56;;;;;;;0.08;0.08;;;;;;;;;;1863914;76;26716;-45
2022/04/10 04:34:25;;;;;;;0.85;0.20;;;;;;;;;;1848064;77;26343;-42
2022/04/10 04:36:52;;;;;;;0.10;0.10;;;;;;;;;;1848633;77;26696;-48
2022/04/10 04:39:20;;;;;;;0.13;0.10;;;;;;;;;;1863300;76;26619;-42
2022/04/10 04:41:47;;;;;;;0.20;0.20;;;;;;;;;;1908931;75;26194;-46
2022/04/10 04:44:14;;;;;;;0.00;0.00;;;;;;;;;;1906151;75;26329;-43
2022/04/10 04:46:41;;;;;;;0.10;0.10;;;;;;;;;;1870824;75;26243;-47
2022/04/10 04:49:09;;;;;;;0.20;0.20;;;;;;;;;;1864654;77;26258;-49
2022/04/10 04:51:36;;;;;;;0.13;0.13;;;;;;;;;;1870153;75;26277;-50
2022/04/10 04:54:05;;;;;;;1.35;0.30;;;;;;;;;;1871685;75;26733;-45
2022/04/10 04:56:32;;;;;;;0.10;0.10;;;;;;;;;;1862952;77;26277;-44
2022/04/10 04:58:59;;;;;;;0.13;0.13;;;;;;;;;;1832775;77;26249;-46
2022/04/10 05:01:27;;;;;;;0.10;0.10;;;;;;;;;;1830339;78;26219;-42
2022/04/10 05:03:54;;;;;;;0.10;0.10;;;;;;;;;;1866124;76;27465;-48
2022/04/10 05:06:21;;;;;;;0.20;0.20;;;;;;;;;;1864593;77;26248;-51
2022/04/10 05:08:48;;;;;;;0.10;0.10;;;;;;;;;;1864484;77;26202;-48
2022/04/10 05:11:16;;;;;;;0.20;0.20;;;;;;;;;;1864752;77;26308;-46
2022/04/10 05:13:43;;;;;;;0.25;0.10;;;;;;;;;;1832089;78;26299;-43
2022/04/10 05:16:11;;;;;;;0.20;0.20;;;;;;;;;;1852158;76;26723;-42
2022/04/10 05:18:38;;;;;;;0.28;0.10;;;;;;;;;;1864565;77;26179;-45
2022/04/10 05:21:06;;;;;;;0.47;0.23;;;;;;;;;;1864754;77;26220;-47
2022/04/10 05:23:35;;;;;;;0.10;0.10;;;;;;;;;;1863600;77;26536;-50
2022/04/10 05:26:02;;;;;;;0.25;0.25;;;;;;;;;;1838108;77;26265;-45
2022/04/10 05:28:31;;;;;;;0.35;0.20;;;;;;;;;;1882109;75;26646;-41
2022/04/10 05:30:58;;;;;;;0.17;0.17;;;;;;;;;;1882052;76;26255;-42
2022/04/10 05:33:26;;;;;;;0.62;0.20;;;;;;;;;;1861821;76;26261;-46
2022/04/10 05:35:55;;;;;;;0.20;0.20;;;;;;;;;;1850638;77;26810;-46
2022/04/10 05:38:23;;;;;;;0.20;0.20;;;;;;;;;;1855301;76;26839;-43
2022/04/10 05:40:54;;;;;;;0.20;0.20;;;;;;;;;;1851491;77;26217;-43
2022/04/10 05:43:22;;;;;;;0.10;0.10;;;;;;;;;;1851673;77;26335;-43
2022/04/10 05:45:50;;;;;;;0.28;0.20;;;;;;;;;;1849406;76;26333;-45
2022/04/10 05:48:18;;;;;;;0.15;0.15;;;;;;;;;;1849994;77;26697;-46
2022/04/10 05:50:45;;;;;;;0.55;0.20;;;;;;;;;;1867686;76;27113;-47
2022/04/10 05:53:12;;;;;;;0.20;0.20;;;;;;;;;;1881814;75;26304;-47
2022/04/10 05:55:40;;;;;;;2.20;0.30;;;;;;;;;;1872336;76;26244;-46
2022/04/10 05:58:08;;;;;;;0.10;0.10;;;;;;;;;;1840727;77;26684;-50
2022/04/10 06:00:35;;;;;;;0.10;0.10;;;;;;;;;;1842504;77;26243;-48
2022/04/10 06:03:05;;;;;;;1.07;0.20;;;;;;;;;;1832820;76;26263;-47
2022/04/10 06:05:32;;;;;;;0.40;0.20;;;;;;;;;;1829336;77;26380;-47
2022/04/10 06:08:00;;;;;;;0.20;0.20;;;;;;;;;;1819049;77;26278;-44
2022/04/10 06:10:27;;;;;;;0.33;0.30;;;;;;;;;;1827320;77;26287;-44
2022/04/10 06:12:54;;;;;;;0.40;0.33;;;;;;;;;;1794969;79;26374;-42
2022/04/10 06:15:22;;;;;;;0.93;0.30;;;;;;;;;;1823432;76;26254;-46
2022/04/10 06:17:49;;;;;;;0.88;0.30;;;;;;;;;;1828110;78;26287;-47
2022/04/10 06:20:16;;;;;;;1.95;0.40;;;;;;;;;;1818961;78;26381;-45
2022/04/10 06:22:44;;;;;;;5.37;0.62;;;;;;;;;;1835416;78;26244;-45
2022/04/10 06:25:11;;;;;;;2.33;0.40;;;;;;;;;;1843918;78;26260;-44
2022/04/10 06:27:38;;;;;;;1.75;0.37;;;;;;;;;;1854505;76;26358;-49
2022/04/10 06:30:06;;;;;;;1.92;0.40;;;;;;;;;;1874908;76;26257;-42
2022/04/10 06:32:33;;;;;;;5.40;0.40;;;;;;;;;;1864040;76;26296;-45
2022/04/10 06:35:01;;;;;;;2.00;0.30;;;;;;;;;;1834072;78;26322;-42
2022/04/10 06:37:28;;;;;;;3.05;0.57;;;;;;;;;;1825399;78;26272;-46
2022/04/10 06:39:55;;;;;;;1.42;0.30;;;;;;;;;;1821605;76;26349;-45
2022/04/10 06:42:23;;;;;;;6.22;0.90;;;;;;;;;;1812056;79;26323;-46
2022/04/10 06:44:50;;;;;;;2.25;0.33;;;;;;;;;;1819760;78;26308;-46
2022/04/10 06:47:17;;;;;;;1.70;0.50;;;;;;;;;;1842573;76;26650;-48
2022/04/10 06:49:45;;;;;;;0.35;0.30;;;;;;;;;;1842712;78;26268;-45
2022/04/10 06:52:12;;;;;;;1.07;0.35;;;;;;;;;;1842888;77;26302;-44
2022/04/10 06:54:39;;;;;;;0.47;0.40;;;;;;;;;;1833903;78;26355;-54
2022/04/10 06:57:07;;;;;;;1.62;0.57;;;;;;;;;;1832216;78;26357;-50
2022/04/10 06:59:34;;;;;;;2.33;0.40;;;;;;;;;;1843184;78;26802;-50
2022/04/10 07:02:01;;;;;;;0.78;0.33;;;;;;;;;;1844463;76;26270;-47
2022/04/10 07:04:28;;;;;;;0.88;0.20;;;;;;;;;;1834859;76;26533;-45
2022/04/10 07:06:56;;;;;;;0.20;0.20;;;;;;;;;;1843531;78;26240;-48
2022/04/10 07:09:23;;;;;;;1.00;0.30;;;;;;;;;;1843606;78;26302;-44
2022/04/10 07:11:50;;;;;;;2.55;0.40;;;;;;;;;;1843629;78;26252;-47
2022/04/10 07:14:17;;;;;;;0.30;0.30;;;;;;;;;;1831786;76;26324;-47
2022/04/10 07:16:45;;;;;;;2.20;0.20;;;;;;;;;;1823921;76;26329;-46
2022/04/10 07:19:12;;;;;;;0.33;0.33;;;;;;;;;;1826417;78;26758;-44
2022/04/10 07:24:26;;;;;;;0.30;0.30;;;;;;;;;;1841840;78;26374;-43
2022/04/10 07:26:54;;;;;;;1.10;0.40;;;;;;;;;;1842754;78;26276;-47
2022/04/10 07:29:21;;;;;;;0.70;0.28;;;;;;;;;;1840071;78;26790;-50
2022/04/10 07:31:49;;;;;;;0.20;0.20;;;;;;;;;;1813045;79;26332;-49
2022/04/10 07:34:16;;;;;;;1.15;0.30;;;;;;;;;;1840913;78;26325;-45
2022/04/10 07:36:43;;;;;;;0.20;0.20;;;;;;;;;;1837005;78;26732;-46
2022/04/10 07:39:10;;;;;;;4.00;0.40;;;;;;;;;;1835481;78;26842;-42
2022/04/10 07:41:38;;;;;;;0.95;0.40;;;;;;;;;;1842098;76;26724;-48
2022/04/10 07:44:05;;;;;;;0.62;0.40;;;;;;;;;;1831012;78;26246;-42
2022/04/10 07:49:18;;;;;;;0.42;0.42;;;;;;;;;;1813203;78;26361;-42
2022/04/10 07:51:45;;;;;;;2.52;0.40;;;;;;;;;;1818349;78;26299;-46
2022/04/10 07:54:12;;;;;;;0.68;0.37;;;;;;;;;;1822020;76;26599;-41
2022/04/10 07:56:41;;;;;;;4.05;0.40;;;;;;;;;;1819498;78;26967;-45
2022/04/10 07:59:08;;;;;;;1.57;0.50;;;;;;;;;;1814897;78;26295;-44
2022/04/10 08:01:35;;;;;;;1.35;0.60;;;;;;;;;;1820577;78;26268;-41
2022/04/10 08:04:03;;;;;;;0.17;0.17;;;;;;;;;;1831137;76;26772;-45
2022/04/10 08:06:30;;;;;;;1.47;0.35;;;;;;;;;;1837556;76;26268;-45
2022/04/10 08:08:57;;;;;;;0.30;0.30;;;;;;;;;;1839119;76;26275;-47
2022/04/10 08:11:24;;;;;;;0.53;0.40;;;;;;;;;;1839457;78;26874;-50
2022/04/10 08:13:52;;;;;;;2.25;0.40;;;;;;;;;;1837104;78;26335;-45
2022/04/10 08:16:19;;;;;;;3.98;0.40;;;;;;;;;;1835292;76;26281;-46
2022/04/10 08:18:46;;;;;;;0.50;0.40;;;;;;;;;;1835380;78;26730;-46
2022/04/10 08:21:14;;;;;;;0.90;0.40;;;;;;;;;;1811059;78;26801;-45
2022/04/10 08:23:41;;;;;;;1.57;0.30;;;;;;;;;;1839800;78;26806;-44
2022/04/10 08:26:08;;;;;;;0.68;0.30;;;;;;;;;;1816501;78;26261;-44
2022/04/10 08:28:35;;;;;;;2.22;0.42;;;;;;;;;;1824206;77;26287;-44
2022/04/10 08:31:03;;;;;;;0.35;0.35;;;;;;;;;;1833599;78;26284;-41
2022/04/10 08:33:30;;;;;;;0.90;0.40;;;;;;;;;;1839374;78;26388;-44
2022/04/10 08:35:57;;;;;;;1.82;0.40;;;;;;;;;;1839797;78;26230;-41
2022/04/10 08:38:24;;;;;;;2.92;0.30;;;;;;;;;;1839916;78;26296;-42
2022/04/10 08:40:53;;;;;;;0.37;0.33;;;;;;;;;;1839637;76;26295;-45
2022/04/10 08:43:21;;;;;;;2.00;0.40;;;;;;;;;;1838763;78;26201;-42
2022/04/10 08:45:49;;;;;;;0.53;0.35;;;;;;;;;;1840147;77;26309;-48
2022/04/10 08:48:17;;;;;;;1.70;0.40;;;;;;;;;;1843380;78;26314;-48
2022/04/10 08:50:44;;;;;;;1.30;0.45;;;;;;;;;;1843376;78;26268;-46
2022/04/10 08:53:12;;;;;;;2.20;0.50;;;;;;;;;;1825404;78;26274;-44
2022/04/10 08:55:39;;;;;;;1.20;0.10;;;;;;;;;;1813400;79;26429;-45
2022/04/10 08:58:06;;;;;;;0.40;0.40;;;;;;;;;;1813075;79;26298;-43
2022/04/10 09:00:35;;;;;;;0.40;0.40;;;;;;;;;;1813377;79;26310;-42
2022/04/10 09:03:03;;;;;;;0.80;0.35;;;;;;;;;;1829868;78;26715;-41
2022/04/10 09:05:30;;;;;;;1.80;0.20;;;;;;;;;;1833148;76;26272;-41
2022/04/10 09:08:08;;;;;;;0.20;0.20;;;;;;;;;;1843506;78;26762;-47
2022/04/10 09:10:55;;;;;;;0.20;0.20;;;;;;;;;;1836498;76;26379;-45
2022/04/10 09:13:32;;;;;;;1.52;0.33;;;;;;;;;;1843357;78;26210;-48
2022/04/10 09:16:04;;;;;;;6.22;0.50;;;;;;;;;;1843249;78;26266;-43
2022/04/10 09:18:33;;;;;;;0.20;0.20;;;;;;;;;;1835321;78;26304;-42
2022/04/10 09:21:07;;;;;;;1.85;0.20;;;;;;;;;;1838994;78;26338;-45
2022/04/10 09:23:35;;;;;;;0.30;0.20;;;;;;;;;;1843411;78;26279;-44
2022/04/10 09:26:02;;;;;;;0.33;0.30;;;;;;;;;;1843267;78;26296;-44
2022/04/10 09:28:46;;;;;;;0.17;0.17;;;;;;;;;;1843445;77;26330;-46
2022/04/10 09:31:32;;;;;;;0.10;0.10;;;;;;;;;;1843664;78;26382;-42
2022/04/10 09:34:01;;;;;;;0.78;0.20;;;;;;;;;;1832357;78;26377;-44
2022/04/10 09:36:45;;;;;;;0.98;0.20;;;;;;;;;;1832191;78;26318;-41
2022/04/10 09:39:13;;;;;;;1.05;0.10;;;;;;;;;;1829898;76;26341;-42
2022/04/10 09:41:42;;;;;;;0.20;0.17;;;;;;;;;;1806466;79;26326;-45
2022/04/10 09:44:23;;;;;;;0.20;0.20;;;;;;;;;;1831295;78;26260;-48
2022/04/10 09:46:58;;;;;;;0.40;0.20;;;;;;;;;;1840101;78;26772;-47
2022/04/10 09:49:27;;;;;;;1.12;0.05;;;;;;;;;;1832581;78;26314;-48
2022/04/10 09:52:01;;;;;;;0.30;0.23;;;;;;;;;;1827545;76;26327;-43
2022/04/10 09:54:35;;;;;;;0.20;0.20;;;;;;;;;;1816927;78;26279;-47
2022/04/10 09:57:07;;;;;;;0.10;0.10;;;;;;;;;;1816978;78;26763;-42
2022/04/10 09:59:40;;;;;;;2.00;0.23;;;;;;;;;;1821052;78;26209;-49
2022/04/10 10:02:08;;;;;;;0.20;0.20;;;;;;;;;;1814243;78;26648;-50
2022/04/10 10:04:37;;;;;;;0.15;0.15;;;;;;;;;;1818586;78;26759;-45
2022/04/10 10:07:06;;;;;;;0.20;0.20;;;;;;;;;;1812673;78;26744;-44
2022/04/10 10:09:33;;;;;;;0.17;0.17;;;;;;;;;;1816660;78;26239;-47
2022/04/10 10:12:01;;;;;;;0.30;0.20;;;;;;;;;;1817106;78;26266;-45
2022/04/10 10:14:33;;;;;;;0.10;0.10;;;;;;;;;;1833576;78;26358;-47
2022/04/10 10:17:01;;;;;;;0.20;0.20;;;;;;;;;;1817118;78;27162;-44
2022/04/10 10:19:29;;;;;;;0.13;0.13;;;;;;;;;;1817050;78;26644;-51
2022/04/10 10:21:58;;;;;;;0.23;0.23;;;;;;;;;;1823641;78;26303;-46
2022/04/10 10:24:26;;;;;;;0.10;0.10;;;;;;;;;;1842023;78;26752;-43
2022/04/10 10:26:55;;;;;;;0.20;0.20;;;;;;;;;;1828403;76;26263;-43
2022/04/10 10:29:24;;;;;;;0.15;0.15;;;;;;;;;;1838395;78;26741;-43
2022/04/10 10:32:02;;;;;;;0.37;0.20;;;;;;;;;;1839994;78;26868;-45
2022/04/10 10:34:30;;;;;;;0.20;0.10;;;;;;;;;;1811719;79;26267;-45
2022/04/10 10:36:59;;;;;;;0.42;0.30;;;;;;;;;;1812637;79;26720;-46
2022/04/10 10:39:28;;;;;;;0.10;0.10;;;;;;;;;;1828576;78;26224;-45
2022/04/10 10:41:57;;;;;;;0.37;0.20;;;;;;;;;;1843598;78;26256;-43
2022/04/10 10:44:28;;;;;;;0.10;0.10;;;;;;;;;;1841166;78;26323;-43
2022/04/10 10:47:03;;;;;;;0.30;0.30;;;;;;;;;;1842471;78;26783;-44
2022/04/10 10:49:31;;;;;;;0.10;0.10;;;;;;;;;;1835595;76;27546;-45
2022/04/10 10:51:59;;;;;;;1.27;0.15;;;;;;;;;;1809023;79;26369;-43
2022/04/10 10:54:28;;;;;;;0.00;0.00;;;;;;;;;;1810732;76;26473;-43
2022/04/10 10:56:55;;;;;;;0.28;0.20;;;;;;;;;;1838145;77;26268;-44
2022/04/10 10:59:36;;;;;;;0.10;0.10;;;;;;;;;;1839616;78;26300;-45
2022/04/10 11:02:10;;;;;;;0.20;0.13;;;;;;;;;;1846578;76;26331;-45
2022/04/10 11:04:41;;;;;;;0.20;0.20;;;;;;;;;;1851797;76;26403;-47
2022/04/10 11:07:13;;;;;;;0.20;0.20;;;;;;;;;;1809956;78;26363;-44
2022/04/10 11:10:00;;;;;;;0.13;0.13;;;;;;;;;;1819750;79;26255;-44
2022/04/10 11:12:31;;;;;;;0.13;0.13;;;;;;;;;;1809994;79;26734;-44
2022/04/10 11:15:01;;;;;;;0.57;0.20;;;;;;;;;;1821880;76;26348;-49
2022/04/10 11:17:29;;;;;;;0.20;0.20;;;;;;;;;;1840058;78;26264;-46
2022/04/10 11:19:58;;;;;;;0.20;0.20;;;;;;;;;;1809412;79;26256;-46
2022/04/10 11:22:26;;;;;;;0.20;0.20;;;;;;;;;;1826388;78;26199;-43
2022/04/10 11:24:54;;;;;;;0.23;0.23;;;;;;;;;;1839697;78;26622;-53
2022/04/10 11:27:40;;;;;;;0.40;0.40;;;;;;;;;;1809779;79;26306;-43
2022/04/10 11:30:08;;;;;;;0.72;0.40;;;;;;;;;;1809531;79;26644;-43
2022/04/10 11:32:42;;;;;;;0.23;0.20;;;;;;;;;;1829521;78;26657;-45
2022/04/10 11:35:20;;;;;;;0.20;0.20;;;;;;;;;;1819032;78;26341;-43
2022/04/10 11:37:50;;;;;;;0.60;0.60;;;;;;;;;;1812405;78;26215;-49
2022/04/10 11:40:27;;;;;;;0.28;0.20;;;;;;;;;;1822973;78;26327;-50
2022/04/10 11:42:59;;;;;;;0.30;0.25;;;;;;;;;;1822565;78;26336;-47
2022/04/10 11:45:28;;;;;;;0.30;0.30;;;;;;;;;;1823716;78;26203;-46
2022/04/10 11:47:55;;;;;;;0.42;0.28;;;;;;;;;;1823791;78;26858;-46
2022/04/10 11:50:23;;;;;;;0.37;0.37;;;;;;;;;;1823837;78;26303;-43
2022/04/10 11:53:11;;;;;;;2.65;1.00;;;;;;;;;;1823442;78;26765;-45
2022/04/10 11:55:39;;;;;;;0.40;0.35;;;;;;;;;;1823533;78;26270;-43
2022/04/10 11:58:13;;;;;;;0.40;0.40;;;;;;;;;;1823367;78;26261;-45
2022/04/10 12:00:44;;;;;;;0.40;0.40;;;;;;;;;;1823484;78;26277;-43
2022/04/10 12:03:12;;;;;;;0.90;0.30;;;;;;;;;;1817766;78;26541;-45
2022/04/10 12:05:39;;;;;;;0.30;0.30;;;;;;;;;;1823268;78;26278;-45
2022/04/10 12:08:07;;;;;;;0.30;0.30;;;;;;;;;;1823382;78;26278;-43
2022/04/10 12:10:35;;;;;;;0.30;0.30;;;;;;;;;;1823388;78;26371;-45
2022/04/10 12:13:02;;;;;;;0.30;0.30;;;;;;;;;;1823476;78;26274;-47
2022/04/10 12:15:30;;;;;;;0.33;0.28;;;;;;;;;;1823770;78;26328;-45
2022/04/10 12:18:11;;;;;;;0.20;0.20;;;;;;;;;;1823782;78;26312;-48
2022/04/10 12:20:39;;;;;;;0.60;0.10;;;;;;;;;;1823790;78;26280;-45
2022/04/10 12:23:24;;;;;;;0.30;0.30;;;;;;;;;;1798937;78;26350;-43
2022/04/10 12:25:52;;;;;;;0.30;0.30;;;;;;;;;;1808404;78;26785;-50
2022/04/10 12:28:20;;;;;;;0.15;0.15;;;;;;;;;;1823626;78;26269;-43
2022/04/10 12:30:48;;;;;;;0.53;0.53;;;;;;;;;;1823233;78;26214;-43
2022/04/10 12:33:17;;;;;;;0.30;0.30;;;;;;;;;;1811050;78;26246;-46
2022/04/10 12:35:45;;;;;;;0.20;0.20;;;;;;;;;;1823483;78;26313;-48
2022/04/10 12:38:13;;;;;;;0.65;0.33;;;;;;;;;;1804309;78;26378;-46
2022/04/10 12:40:41;;;;;;;0.53;0.20;;;;;;;;;;1793717;80;26923;-43
2022/04/10 12:43:09;;;;;;;0.25;0.25;;;;;;;;;;1794014;80;26356;-42
2022/04/10 12:45:38;;;;;;;0.20;0.20;;;;;;;;;;1840738;76;26258;-45
2022/04/10 12:48:24;;;;;;;0.20;0.20;;;;;;;;;;1862376;77;26754;-53
2022/04/10 12:51:05;;;;;;;0.30;0.30;;;;;;;;;;1833028;78;26206;-45
2022/04/10 12:53:32;;;;;;;0.25;0.25;;;;;;;;;;1832977;78;26210;-47
2022/04/10 12:56:00;;;;;;;0.28;0.17;;;;;;;;;;1863925;77;26713;-51
2022/04/10 12:58:30;;;;;;;0.20;0.20;;;;;;;;;;1850895;77;26233;-46
2022/04/10 13:00:59;;;;;;;0.15;0.15;;;;;;;;;;1812616;77;26857;-49
2022/04/10 13:03:28;;;;;;;0.20;0.20;;;;;;;;;;1846185;75;26677;-48
2022/04/10 13:05:59;;;;;;;1.00;0.20;;;;;;;;;;1843635;77;26315;-45
2022/04/10 13:08:31;;;;;;;0.10;0.10;;;;;;;;;;1833472;78;25704;-43
2022/04/10 13:10:58;;;;;;;0.20;0.20;;;;;;;;;;1832654;78;26788;-45
2022/04/10 13:13:26;;;;;;;0.20;0.20;;;;;;;;;;1851885;77;26810;-49
2022/04/10 13:15:53;;;;;;;0.30;0.10;;;;;;;;;;1856036;76;26195;-49
2022/04/10 13:18:27;;;;;;;0.23;0.23;;;;;;;;;;1845840;77;26560;-43
2022/04/10 13:20:55;;;;;;;0.25;0.20;;;;;;;;;;1857206;77;26208;-47
2022/04/10 13:23:22;;;;;;;0.10;0.10;;;;;;;;;;1818933;78;26221;-47
2022/04/10 13:25:49;;;;;;;0.17;0.17;;;;;;;;;;1846146;75;26285;-48
2022/04/10 13:28:17;;;;;;;0.37;0.20;;;;;;;;;;1841556;77;26738;-42
2022/04/10 13:30:44;;;;;;;0.20;0.20;;;;;;;;;;1847120;77;26718;-42
2022/04/10 13:33:11;;;;;;;0.13;0.13;;;;;;;;;;1845755;77;26788;-48
2022/04/10 13:35:38;;;;;;;0.10;0.10;;;;;;;;;;1837295;76;26252;-44
2022/04/10 13:38:06;;;;;;;0.23;0.23;;;;;;;;;;1838011;77;26260;-44
2022/04/10 13:40:33;;;;;;;0.20;0.20;;;;;;;;;;1844787;76;26245;-44
2022/04/10 13:43:00;;;;;;;0.10;0.10;;;;;;;;;;1843973;77;26264;-50
2022/04/10 13:45:28;;;;;;;0.10;0.10;;;;;;;;;;1842721;77;26193;-46
2022/04/10 13:47:55;;;;;;;0.10;0.10;;;;;;;;;;1840108;75;26386;-47
2022/04/10 13:50:23;;;;;;;0.68;0.15;;;;;;;;;;1838968;77;26229;-45
2022/04/10 13:52:50;;;;;;;0.10;0.10;;;;;;;;;;1809705;78;26208;-50
2022/04/10 13:55:17;;;;;;;0.10;0.10;;;;;;;;;;1817248;78;26307;-45
2022/04/10 13:57:44;;;;;;;0.75;0.25;;;;;;;;;;1834266;77;26262;-46
2022/04/10 14:00:12;;;;;;;0.10;0.10;;;;;;;;;;1836752;76;26305;-45
2022/04/10 14:02:40;;;;;;;1.17;0.13;;;;;;;;;;1836638;77;26759;-50
2022/04/10 14:05:08;;;;;;;0.10;0.10;;;;;;;;;;1838579;77;26225;-44
2022/04/10 14:07:36;;;;;;;0.65;0.20;;;;;;;;;;1831310;77;26693;-47
2022/04/10 14:10:04;;;;;;;5.00;0.35;;;;;;;;;;1837826;77;26244;-42
2022/04/10 14:12:31;;;;;;;0.03;0.03;;;;;;;;;;1840687;76;26286;-46
2022/04/10 14:14:59;;;;;;;0.10;0.10;;;;;;;;;;1835632;76;26265;-44
2022/04/10 14:17:27;;;;;;;0.03;0.03;;;;;;;;;;1788758;79;26339;-42
2022/04/10 14:19:54;;;;;;;0.10;0.10;;;;;;;;;;1794644;79;26323;-46
2022/04/10 14:22:21;;;;;;;0.30;0.10;;;;;;;;;;1826282;76;26237;-50
2022/04/10 14:24:49;;;;;;;1.10;0.10;;;;;;;;;;1835916;76;26381;-48
2022/04/10 14:27:16;;;;;;;0.10;0.10;;;;;;;;;;1825465;77;26263;-46
2022/04/10 14:29:43;;;;;;;0.00;0.00;;;;;;;;;;1824604;77;26310;-47
2022/04/10 14:32:11;;;;;;;0.60;0.28;;;;;;;;;;1829626;77;26264;-54
2022/04/10 14:34:39;;;;;;;0.20;0.10;;;;;;;;;;1841182;76;26260;-45
2022/04/10 14:37:07;;;;;;;0.00;0.00;;;;;;;;;;1824287;77;26232;-48
2022/04/10 14:39:34;;;;;;;0.10;0.10;;;;;;;;;;1834736;77;26279;-50
2022/04/10 14:42:02;;;;;;;0.00;0.00;;;;;;;;;;1825723;77;26357;-47
2022/04/10 14:44:29;;;;;;;0.30;0.13;;;;;;;;;;1820937;77;27242;-42
2022/04/10 14:46:57;;;;;;;0.17;0.10;;;;;;;;;;1832138;76;26365;-44
2022/04/10 14:49:24;;;;;;;1.45;0.13;;;;;;;;;;1817853;77;26404;-51
2022/04/10 14:51:51;;;;;;;0.10;0.10;;;;;;;;;;1831051;77;26649;-50
2022/04/10 14:54:18;;;;;;;0.10;0.10;;;;;;;;;;1805400;78;26365;-50
2022/04/10 14:56:46;;;;;;;0.00;0.00;;;;;;;;;;1825899;77;26302;-46